Terminal Aerodrome Forecast
Issued by NWS Wilmington, OH

Current Version | Previous Version | Text Only | Print | Product List | Glossary Off
Versions: 1 2 3 4 5 6 7 8 9 10 11 12 13 14 15 16 17 18 19 20 21 22 23

000
FTUS41 KILN 242300
TAFCVG
TAF
KCVG 242332Z 2500/2606 24011KT P6SM SCT060
     FM250400 25007KT P6SM OVC040
      TEMPO 2508/2510 BKN025
     FM251000 27005KT P6SM SCT250
     FM251300 VRB04KT P6SM BKN250
     FM251900 04006KT P6SM SCT150 OVC250=

USA.gov is the U.S. government's official web portal to all federal, state and local government web resources and services.